DucheSS Of Scandinavia — OUZI2 — position and weather

sailwx.info

Track history (hours):
 
Tides and Currents Weather Stations Pressure Air Temp Water Temp Dewpoint Dewpoint Depression Visibility Wind Speed Wind Dir Waves Ship Positions

DucheSS Of Scandinavia

Operator: DFDS A/S

Last reported at 2018-Jun-22 07:30 UTC. Time now 2018-Jun-22 07:41 UTC.
Position N 59°01' E 010°27'.

Length 134 m; draft 5.4 m.

Type: Passenger vessel. MMSI: 219002929.

Date/timePositionNaut miles runAvg speedWind from/ knotsBaromVisibWave heightAir tempDewpointWater temp
2018-Jun-22 07:30N 59°01' E 010°27'713.6
2018-Jun-22 07:00N 59°04' E 010°15'4 8.1
2018-Jun-22 06:30N 59°08' E 010°14'0 0.0
2018-Jun-22 06:00N 59°08' E 010°14'0 0.8
2018-Jun-22 05:30N 59°07' E 010°14'1 1.9
2018-Jun-22 04:58N 59°06' E 010°14'0 0.0
2018-Jun-22 04:29N 59°06' E 010°14'0 0.0
2018-Jun-22 03:59N 59°06' E 010°14'0 0.0
2018-Jun-22 03:29N 59°06' E 010°14'0 0.0
2018-Jun-22 03:00N 59°06' E 010°14'0 0.0
2018-Jun-22 02:30N 59°06' E 010°14'0 0.0
2018-Jun-22 01:57N 59°06' E 010°14'0 0.0
2018-Jun-22 01:28N 59°06' E 010°14'0 0.0
2018-Jun-22 00:58N 59°06' E 010°14'0 0.0
2018-Jun-22 00:28N 59°06' E 010°14'0 0.0
2018-Jun-21 23:59N 59°06' E 010°14'0 0.0
2018-Jun-21 23:29N 59°06' E 010°14'0 0.0
2018-Jun-21 22:59N 59°06' E 010°14'0 0.0
2018-Jun-21 22:30N 59°06' E 010°14'0 0.0
2018-Jun-21 22:00N 59°06' E 010°14'0 0.0
2018-Jun-21 21:30N 59°06' E 010°14'0 0.0
2018-Jun-21 20:58N 59°06' E 010°14'0 0.0
2018-Jun-21 20:28N 59°06' E 010°14'0 0.0
2018-Jun-21 19:58N 59°06' E 010°14'0 0.0
2018-Jun-21 19:30N 59°06' E 010°14'1 2.7
2018-Jun-21 18:58N 59°08' E 010°14'4 8.3
2018-Jun-21 18:30N 59°04' E 010°15'714.7
2018-Jun-21 18:00N 59°01' E 010°28'917.4
2018-Jun-21 17:31N 59°01' E 010°45'816.4
2018-Jun-21 17:01N 58°59' E 011°00'612.3
2018-Jun-21 16:30N 58°56' E 011°10'0 0.0
2018-Jun-21 16:01N 58°56' E 011°10'612.0
2018-Jun-21 15:30N 58°59' E 011°00'815.7
2018-Jun-21 15:00N 59°02' E 010°46'815.3
2018-Jun-21 14:31N 59°00' E 010°31'713.9
2018-Jun-21 14:00N 59°01' E 010°18'612.6
2018-Jun-21 13:30N 59°07' E 010°14'0 0.6
2018-Jun-21 13:00N 59°08' E 010°14'0 0.0
2018-Jun-21 12:30N 59°08' E 010°14'5 9.5
2018-Jun-21 12:00N 59°03' E 010°15'714.3
2018-Jun-21 11:30N 59°01' E 010°29'815.8
2018-Jun-21 11:00N 59°02' E 010°44'815.2
2018-Jun-21 10:30N 58°60' E 010°58'714.0
2018-Jun-21 10:01N 58°56' E 011°09'0 0.7
2018-Jun-21 09:31N 58°56' E 011°10'0 0.2
2018-Jun-21 09:00N 58°56' E 011°10'713.7
2018-Jun-21 08:30N 58°60' E 010°59'816.1
2018-Jun-21 08:00N 59°01' E 010°43'815.7
2018-Jun-21 07:30N 59°01' E 010°28'714.4
2018-Jun-21 07:01N 59°03' E 010°15'5 9.1
2018-Jun-21 06:30N 59°08' E 010°14'0 0.0
2018-Jun-21 06:00N 59°08' E 010°14'1 1.6
2018-Jun-21 05:30N 59°07' E 010°14'1 1.2
2018-Jun-21 05:00N 59°06' E 010°14'0 0.0
2018-Jun-21 04:30N 59°06' E 010°14'0 0.0
2018-Jun-21 04:01N 59°06' E 010°14'0 0.0
2018-Jun-21 03:28N 59°06' E 010°14'0 0.0
2018-Jun-21 02:58N 59°06' E 010°14'0 0.0
2018-Jun-21 02:29N 59°06' E 010°14'0 0.0
2018-Jun-21 01:59N 59°06' E 010°14'0 0.0
2018-Jun-21 01:26N 59°06' E 010°14'0 0.0
2018-Jun-21 01:00N 59°06' E 010°14'0 0.0
2018-Jun-21 00:30N 59°06' E 010°14'0 0.0
2018-Jun-21 00:00N 59°06' E 010°14'0 0.0
2018-Jun-20 23:31N 59°06' E 010°14'0 0.0
2018-Jun-20 22:58N 59°06' E 010°14'0 0.0
2018-Jun-20 22:28N 59°06' E 010°14'0 0.0
2018-Jun-20 21:59N 59°06' E 010°14'0 0.0
2018-Jun-20 21:29N 59°06' E 010°14'0 0.0
2018-Jun-20 20:59N 59°06' E 010°14'0 0.0
2018-Jun-20 20:30N 59°06' E 010°14'0 0.0
2018-Jun-20 20:00N 59°06' E 010°14'0 0.0
2018-Jun-20 19:30N 59°06' E 010°14'1 2.9
2018-Jun-20 19:00N 59°08' E 010°14'3 6.7
2018-Jun-20 18:31N 59°04' E 010°15'714.0
2018-Jun-20 18:00N 59°01' E 010°27'815.9
2018-Jun-20 17:31N 59°01' E 010°42'815.8
2018-Jun-20 17:01N 59°00' E 010°57'815.1
2018-Jun-20 16:31N 58°56' E 011°09'1 1.2
2018-Jun-20 16:00N 58°56' E 011°10'4 8.1
2018-Jun-20 15:31N 58°58' E 011°03'816.1
2018-Jun-20 15:00N 59°01' E 010°49'816.2
2018-Jun-20 14:31N 59°01' E 010°33'815.0
2018-Jun-20 14:01N 59°01' E 010°19'612.6
2018-Jun-20 13:31N 59°07' E 010°14'1 1.5
2018-Jun-20 13:01N 59°08' E 010°14'0 0.0
2018-Jun-20 12:31N 59°08' E 010°14'5 9.0
2018-Jun-20 12:01N 59°03' E 010°15'713.4
2018-Jun-20 11:31N 59°00' E 010°27'815.3
2018-Jun-20 11:01N 59°01' E 010°42'815.2
2018-Jun-20 10:31N 59°00' E 010°57'815.1
2018-Jun-20 10:00N 58°56' E 011°08'1 2.0
2018-Jun-20 09:30N 58°56' E 011°10'0 0.1
2018-Jun-20 09:00N 58°56' E 011°10'713.2
2018-Jun-20 08:30N 58°59' E 010°59'815.5
2018-Jun-20 08:00N 59°02' E 010°45'815.8
2018-Jun-20 07:30N 59°01' E 010°29'815.1
2018-Jun-20 07:00N 59°03' E 010°15'5 9.8
2018-Jun-20 06:30N 59°08' E 010°14'0 0.1
2018-Jun-20 06:01N 59°08' E 010°14'0 0.3
2018-Jun-20 05:30N 59°07' E 010°14'1 2.4
2018-Jun-20 04:58N 59°06' E 010°14'0 0.0
2018-Jun-20 04:28N 59°06' E 010°14'0 0.0
2018-Jun-20 03:59N 59°06' E 010°14'0 0.0
2018-Jun-20 03:29N 59°06' E 010°14'0 0.0
2018-Jun-20 02:59N 59°06' E 010°14'0 0.0
2018-Jun-20 02:30N 59°06' E 010°14'0 0.0
2018-Jun-20 02:00N 59°06' E 010°14'0 0.0
2018-Jun-20 01:30N 59°06' E 010°14'0 0.0
2018-Jun-20 00:58N 59°06' E 010°14'0 0.0
2018-Jun-20 00:28N 59°06' E 010°14'0 0.0
2018-Jun-19 23:58N 59°06' E 010°14'0 0.0
2018-Jun-19 23:26N 59°06' E 010°14'0 0.0
2018-Jun-19 22:59N 59°06' E 010°14'0 0.0
2018-Jun-19 22:29N 59°06' E 010°14'0 0.0
2018-Jun-19 22:00N 59°06' E 010°14'0 0.0
2018-Jun-19 21:30N 59°06' E 010°14'0 0.0
2018-Jun-19 21:00N 59°06' E 010°14'0 0.0
2018-Jun-19 20:28N 59°06' E 010°14'0 0.0
2018-Jun-19 19:58N 59°06' E 010°14'1 2.8
2018-Jun-19 19:28N 59°08' E 010°14'0 0.7
2018-Jun-19 19:00N 59°07' E 010°14'612.8
2018-Jun-19 18:30N 59°01' E 010°17'714.8
2018-Jun-19 18:00N 59°01' E 010°32'714.0
2018-Jun-19 17:31N 59°02' E 010°45'714.6
2018-Jun-19 17:00N 58°60' E 010°59'713.7
2018-Jun-19 16:30N 58°56' E 011°10'0 0.3
2018-Jun-19 16:01N 58°56' E 011°10'4 7.8
2018-Jun-19 15:31N 58°57' E 011°03'814.9
2018-Jun-19 15:00N 59°01' E 010°51'815.5
2018-Jun-19 14:30N 59°01' E 010°36'815.2
2018-Jun-19 14:00N 59°01' E 010°21'612.8
2018-Jun-19 13:30N 59°06' E 010°14'1 2.7
2018-Jun-19 13:01N 59°08' E 010°14'0 0.1
2018-Jun-19 12:30N 59°08' E 010°14'612.2
2018-Jun-19 12:01N 59°02' E 010°17'713.8
2018-Jun-19 11:30N 59°00' E 010°30'714.5
2018-Jun-19 11:00N 59°02' E 010°44'815.6
2018-Jun-19 10:30N 58°60' E 010°58'714.2
2018-Jun-19 10:00N 58°56' E 011°10'0 0.3
2018-Jun-19 09:30N 58°56' E 011°10'0 0.3
2018-Jun-19 09:01N 58°56' E 011°10'713.3
2018-Jun-19 08:30N 58°59' E 010°59'815.2
2018-Jun-19 08:00N 59°02' E 010°45'815.3
2018-Jun-19 07:30N 59°00' E 010°30'714.8
2018-Jun-19 07:01N 59°02' E 010°16'611.2
2018-Jun-19 06:30N 59°07' E 010°14'0 0.2
2018-Jun-19 06:00N 59°08' E 010°14'0 0.7
2018-Jun-19 05:30N 59°07' E 010°14'1 2.1
2018-Jun-19 04:59N 59°06' E 010°14'0 0.0
2018-Jun-19 04:29N 59°06' E 010°14'0 0.0
2018-Jun-19 04:00N 59°06' E 010°14'0 0.0
2018-Jun-19 03:30N 59°06' E 010°14'0 0.0
2018-Jun-19 03:00N 59°06' E 010°14'0 0.0
2018-Jun-19 02:28N 59°06' E 010°14'0 0.0
2018-Jun-19 01:58N 59°06' E 010°14'0 0.0
2018-Jun-19 01:28N 59°06' E 010°14'0 0.0
2018-Jun-19 00:59N 59°06' E 010°14'0 0.0
2018-Jun-19 00:29N 59°06' E 010°14'0 0.0
2018-Jun-18 23:59N 59°06' E 010°14'0 0.0
2018-Jun-18 23:30N 59°06' E 010°14'0 0.0
2018-Jun-18 23:00N 59°06' E 010°14'0 0.0
2018-Jun-18 22:30N 59°06' E 010°14'0 0.0
2018-Jun-18 21:58N 59°06' E 010°14'0 0.0
2018-Jun-18 21:28N 59°06' E 010°14'0 0.0
2018-Jun-18 20:58N 59°06' E 010°14'0 0.0
2018-Jun-18 20:30N 59°06' E 010°14'0 0.0
2018-Jun-18 20:01N 59°06' E 010°14'0 0.0
2018-Jun-18 19:31N 59°06' E 010°14'1 2.8
2018-Jun-18 19:00N 59°08' E 010°14'4 8.5
2018-Jun-18 18:30N 59°04' E 010°15'713.4
2018-Jun-18 18:00N 59°01' E 010°27'715.0
2018-Jun-18 17:30N 59°01' E 010°41'815.5
2018-Jun-18 17:00N 59°00' E 010°56'815.8
2018-Jun-18 16:30N 58°56' E 011°09'1 1.4
2018-Jun-18 15:58N 58°56' E 011°10'4 9.2
2018-Jun-18 15:31N 58°58' E 011°03'815.2
2018-Jun-18 15:01N 59°01' E 010°50'815.7
2018-Jun-18 14:31N 59°01' E 010°34'815.8
2018-Jun-18 14:01N 59°01' E 010°19'612.8
2018-Jun-18 13:30N 59°07' E 010°14'1 1.1
2018-Jun-18 12:59N 59°08' E 010°14'0 0.0
2018-Jun-18 12:31N 59°08' E 010°14'5 9.3
2018-Jun-18 12:01N 59°03' E 010°15'713.4
2018-Jun-18 11:31N 59°00' E 010°27'714.8
2018-Jun-18 11:01N 59°01' E 010°41'815.4
2018-Jun-18 10:31N 59°00' E 010°56'815.6
2018-Jun-18 10:01N 58°56' E 011°09'1 1.7
2018-Jun-18 09:31N 58°56' E 011°10'0 0.1
2018-Jun-18 09:00N 58°56' E 011°10'713.3
2018-Jun-18 08:31N 58°59' E 010°59'815.0
2018-Jun-18 08:00N 59°02' E 010°45'815.2
2018-Jun-18 07:30N 58°60' E 010°31'714.3
2018-Jun-18 07:01N 59°01' E 010°17'612.1
2018-Jun-18 06:30N 59°07' E 010°14'0 0.4
2018-Jun-18 05:58N 59°08' E 010°14'0 0.6
2018-Jun-18 05:30N 59°07' E 010°14'1 2.2
2018-Jun-18 04:58N 59°06' E 010°14'0 0.0
2018-Jun-18 04:29N 59°06' E 010°14'0 0.0
2018-Jun-18 03:59N 59°06' E 010°14'0 0.0
2018-Jun-18 03:29N 59°06' E 010°14'0 0.0
2018-Jun-18 03:00N 59°06' E 010°14'0 0.0
2018-Jun-18 02:30N 59°06' E 010°14'0 0.0
2018-Jun-18 02:00N 59°06' E 010°14'0 0.0
2018-Jun-18 01:28N 59°06' E 010°14'0 0.0
2018-Jun-18 00:55N 59°06' E 010°14'0 0.0
2018-Jun-18 00:28N 59°06' E 010°14'0 0.0
2018-Jun-17 23:59N 59°06' E 010°14'0 0.0
2018-Jun-17 23:26N 59°06' E 010°14'0 0.0
2018-Jun-17 22:59N 59°06' E 010°14'0 0.0
2018-Jun-17 22:30N 59°06' E 010°14'0 0.0
2018-Jun-17 22:00N 59°06' E 010°14'0 0.0
2018-Jun-17 21:30N 59°06' E 010°14'0 0.0
2018-Jun-17 20:58N 59°06' E 010°14'0 0.0
2018-Jun-17 20:28N 59°06' E 010°14'0 0.0
2018-Jun-17 19:58N 59°06' E 010°14'0 0.4
2018-Jun-17 19:31N 59°06' E 010°14'1 2.4
2018-Jun-17 19:01N 59°08' E 010°14'3 6.7
2018-Jun-17 18:31N 59°04' E 010°15'714.3
2018-Jun-17 18:00N 59°01' E 010°27'816.8
2018-Jun-17 17:31N 59°02' E 010°43'816.4
2018-Jun-17 17:01N 58°60' E 010°59'713.8
2018-Jun-17 16:31N 58°56' E 011°10'0 0.4
2018-Jun-17 16:01N 58°56' E 011°10'4 8.4
2018-Jun-17 15:30N 58°58' E 011°03'816.8
2018-Jun-17 15:00N 59°02' E 010°48'816.6
2018-Jun-17 14:30N 59°01' E 010°32'815.8
2018-Jun-17 14:01N 59°01' E 010°17'612.1
2018-Jun-17 13:30N 59°07' E 010°14'0 0.5
2018-Jun-17 13:00N 59°08' E 010°14'0 0.0
2018-Jun-17 12:30N 59°08' E 010°14'5 9.5
2018-Jun-17 12:01N 59°03' E 010°15'714.1
2018-Jun-17 11:30N 59°01' E 010°28'815.8
2018-Jun-17 11:00N 59°02' E 010°44'815.4
2018-Jun-17 10:30N 58°60' E 010°58'714.0
2018-Jun-17 10:01N 58°56' E 011°09'0 0.9
2018-Jun-17 09:31N 58°56' E 011°10'0 0.4
2018-Jun-17 09:01N 58°56' E 011°10'713.5
2018-Jun-17 08:30N 58°60' E 010°59'815.4
2018-Jun-17 08:00N 59°01' E 010°44'815.3
2018-Jun-17 07:31N 59°00' E 010°30'714.6
2018-Jun-17 07:01N 59°02' E 010°16'611.5
2018-Jun-17 06:30N 59°08' E 010°14'0 0.1
2018-Jun-17 06:01N 59°08' E 010°14'0 0.7
2018-Jun-17 05:30N 59°07' E 010°14'1 2.1
2018-Jun-17 04:59N 59°06' E 010°14'0 0.0
2018-Jun-17 04:30N 59°06' E 010°14'0 0.0
2018-Jun-17 04:00N 59°06' E 010°14'0 0.0
2018-Jun-17 03:30N 59°06' E 010°14'0 0.0
2018-Jun-17 02:58N 59°06' E 010°14'0 0.0
2018-Jun-17 02:28N 59°06' E 010°14'0 0.0
2018-Jun-17 01:58N 59°06' E 010°14'0 0.0
2018-Jun-17 01:29N 59°06' E 010°14'0 0.0
2018-Jun-17 00:59N 59°06' E 010°14'0 0.0
2018-Jun-17 00:29N 59°06' E 010°14'0 0.0
2018-Jun-17 00:00N 59°06' E 010°14'0 0.0
2018-Jun-16 23:30N 59°06' E 010°14'0 0.0
2018-Jun-16 23:00N 59°06' E 010°14'0 0.0
2018-Jun-16 22:28N 59°06' E 010°14'0 0.0
2018-Jun-16 21:58N 59°06' E 010°14'0 0.0
2018-Jun-16 21:28N 59°06' E 010°14'0 0.0
2018-Jun-16 20:59N 59°06' E 010°14'0 0.0
2018-Jun-16 20:29N 59°06' E 010°14'0 0.0
2018-Jun-16 19:59N 59°06' E 010°14'0 0.3
2018-Jun-16 19:30N 59°06' E 010°14'1 2.6
2018-Jun-16 19:00N 59°08' E 010°14'3 6.8
2018-Jun-16 18:30N 59°04' E 010°15'714.0
2018-Jun-16 18:01N 59°01' E 010°27'816.6
2018-Jun-16 17:31N 59°01' E 010°43'816.3
2018-Jun-16 17:01N 58°60' E 010°58'714.1
2018-Jun-16 16:31N 58°56' E 011°10'0 0.6
2018-Jun-16 16:01N 58°56' E 011°10'4 7.4
2018-Jun-16 15:31N 58°57' E 011°03'815.5
2018-Jun-16 15:01N 59°01' E 010°50'816.3
2018-Jun-16 14:31N 59°01' E 010°35'816.0
2018-Jun-16 14:01N 59°01' E 010°19'612.7
2018-Jun-16 13:30N 59°07' E 010°14'1 1.2
2018-Jun-16 13:00N 59°08' E 010°14'0 0.0
2018-Jun-16 12:30N 59°08' E 010°14'5 9.2
2018-Jun-16 12:00N 59°03' E 010°15'713.2
2018-Jun-16 11:30N 59°01' E 010°27'714.7
2018-Jun-16 11:01N 59°01' E 010°42'815.0
2018-Jun-16 10:31N 59°00' E 010°56'815.7
2018-Jun-16 10:00N 58°56' E 011°09'1 1.7
2018-Jun-16 09:31N 58°56' E 011°10'0 0.1
2018-Jun-16 09:00N 58°56' E 011°10'713.1
2018-Jun-16 08:31N 58°59' E 010°59'816.3
2018-Jun-16 08:01N 59°02' E 010°44'816.3
2018-Jun-16 07:31N 59°01' E 010°28'714.7
2018-Jun-16 07:00N 59°03' E 010°15'4 8.5
2018-Jun-16 06:31N 59°08' E 010°14'0 0.0
2018-Jun-16 06:01N 59°08' E 010°14'1 2.7
2018-Jun-16 05:30N 59°06' E 010°14'0 0.2
2018-Jun-16 05:00N 59°06' E 010°14'0 0.0
2018-Jun-16 04:30N 59°06' E 010°14'0 0.0
2018-Jun-16 04:00N 59°06' E 010°14'0 0.0
2018-Jun-16 03:28N 59°06' E 010°14'0 0.0
2018-Jun-16 02:58N 59°06' E 010°14'0 0.0
2018-Jun-16 02:28N 59°06' E 010°14'0 0.0
2018-Jun-16 01:59N 59°06' E 010°14'0 0.0
2018-Jun-16 01:29N 59°06' E 010°14'0 0.0
2018-Jun-16 00:59N 59°06' E 010°14'0 0.0
2018-Jun-16 00:30N 59°06' E 010°14'0 0.0
2018-Jun-16 00:00N 59°06' E 010°14'0 0.0
2018-Jun-15 23:30N 59°06' E 010°14'0 0.0
2018-Jun-15 22:58N 59°06' E 010°14'0 0.0
2018-Jun-15 22:28N 59°06' E 010°14'0 0.0
2018-Jun-15 21:58N 59°06' E 010°14'0 0.0
2018-Jun-15 21:29N 59°06' E 010°14'0 0.0
2018-Jun-15 20:59N 59°06' E 010°14'0 0.0
2018-Jun-15 20:29N 59°06' E 010°14'0 0.0
2018-Jun-15 20:00N 59°06' E 010°14'0 0.8
2018-Jun-15 19:30N 59°07' E 010°14'1 2.1
2018-Jun-15 19:01N 59°08' E 010°14'4 7.1
2018-Jun-15 18:30N 59°04' E 010°15'713.8
2018-Jun-15 18:01N 59°01' E 010°27'714.8
2018-Jun-15 17:31N 59°01' E 010°41'815.4
2018-Jun-15 17:01N 59°00' E 010°56'816.0
2018-Jun-15 16:31N 58°56' E 011°08'1 1.8
2018-Jun-15 16:00N 58°56' E 011°10'4 8.8
2018-Jun-15 15:30N 58°58' E 011°02'815.7
2018-Jun-15 15:01N 59°01' E 010°49'816.4
2018-Jun-15 14:30N 59°01' E 010°33'815.5
2018-Jun-15 14:01N 59°01' E 010°18'612.2
2018-Jun-15 13:31N 59°07' E 010°14'1 1.1
2018-Jun-15 13:01N 59°08' E 010°14'0 0.0
2018-Jun-15 12:31N 59°08' E 010°14'4 8.2
2018-Jun-15 12:00N 59°04' E 010°15'612.8
2018-Jun-15 11:31N 59°01' E 010°27'714.8
2018-Jun-15 11:01N 59°01' E 010°41'714.8
2018-Jun-15 10:31N 59°01' E 010°55'816.1
2018-Jun-15 10:01N 58°56' E 011°08'1 2.4
2018-Jun-15 09:30N 58°56' E 011°10'0 0.0
2018-Jun-15 09:01N 58°56' E 011°10'611.7
2018-Jun-15 08:30N 58°59' E 011°00'815.2
2018-Jun-15 08:01N 59°02' E 010°47'815.8
2018-Jun-15 07:30N 59°01' E 010°31'815.7
2018-Jun-15 07:01N 59°02' E 010°16'611.9
2018-Jun-15 06:30N 59°07' E 010°14'0 0.4
2018-Jun-15 06:00N 59°08' E 010°14'1 1.9
2018-Jun-15 05:30N 59°07' E 010°14'0 1.0
2018-Jun-15 05:00N 59°06' E 010°14'0 0.0
2018-Jun-15 04:28N 59°06' E 010°14'0 0.0
2018-Jun-15 03:58N 59°06' E 010°14'0 0.0
2018-Jun-15 03:28N 59°06' E 010°14'0 0.0
2018-Jun-15 02:59N 59°06' E 010°14'0 0.0
2018-Jun-15 02:29N 59°06' E 010°14'0 0.0
2018-Jun-15 01:59N 59°06' E 010°14'0 0.0
2018-Jun-15 01:30N 59°06' E 010°14'0 0.0
2018-Jun-15 01:00N 59°06' E 010°14'0 0.0
2018-Jun-15 00:30N 59°06' E 010°14'0 0.0
2018-Jun-14 23:58N 59°06' E 010°14'0 0.0
2018-Jun-14 23:28N 59°06' E 010°14'0 0.0
2018-Jun-14 22:59N 59°06' E 010°14'0 0.0
2018-Jun-14 22:29N 59°06' E 010°14'0 0.0
2018-Jun-14 21:59N 59°06' E 010°14'0 0.0
2018-Jun-14 21:27N 59°06' E 010°14'0 0.0
2018-Jun-14 21:00N 59°06' E 010°14'0 0.0
2018-Jun-14 20:30N 59°06' E 010°14'0 0.0
2018-Jun-14 20:01N 59°06' E 010°14'1 2.9
2018-Jun-14 19:31N 59°08' E 010°14'3 6.6
2018-Jun-14 19:01N 59°04' E 010°15'612.4
2018-Jun-14 18:30N 59°00' E 010°24'510.9
2018-Jun-14 18:00N 59°01' E 010°35'510.3
2018-Jun-14 17:31N 59°02' E 010°45'714.2
2018-Jun-14 17:01N 59°00' E 010°58'714.6
2018-Jun-14 16:31N 58°56' E 011°10'0 0.4
2018-Jun-14 16:00N 58°56' E 011°10'511.0
2018-Jun-14 15:30N 58°59' E 011°01'815.6
2018-Jun-14 15:00N 59°02' E 010°47'816.6
2018-Jun-14 14:30N 59°01' E 010°31'816.3
2018-Jun-14 14:01N 59°02' E 010°16'510.9
2018-Jun-14 13:30N 59°08' E 010°14'0 0.1
2018-Jun-14 13:01N 59°08' E 010°14'0 0.0
2018-Jun-14 12:31N 59°08' E 010°14'510.2
2018-Jun-14 12:01N 59°03' E 010°15'815.1
2018-Jun-14 11:31N 59°01' E 010°30'815.6
2018-Jun-14 11:00N 59°02' E 010°45'816.1
2018-Jun-14 10:31N 58°59' E 010°60'612.9
2018-Jun-14 10:01N 58°56' E 011°10'0 0.0
2018-Jun-14 09:31N 58°56' E 011°10'0 0.0
2018-Jun-14 09:01N 58°56' E 011°10'510.9
2018-Jun-14 08:31N 58°59' E 011°01'815.0
2018-Jun-14 08:01N 59°02' E 010°48'815.9
2018-Jun-14 07:30N 59°01' E 010°32'816.7
2018-Jun-14 07:01N 59°02' E 010°16'611.6
2018-Jun-14 06:30N 59°07' E 010°14'0 0.3
2018-Jun-14 06:00N 59°08' E 010°14'0 0.6
2018-Jun-14 05:31N 59°07' E 010°14'1 2.2
2018-Jun-14 05:00N 59°06' E 010°14'0 0.0
2018-Jun-14 04:29N 59°06' E 010°14'0 0.0
2018-Jun-14 03:59N 59°06' E 010°14'0 0.0
2018-Jun-14 03:29N 59°06' E 010°14'0 0.0
2018-Jun-14 03:00N 59°06' E 010°14'0 0.0
2018-Jun-14 02:30N 59°06' E 010°14'0 0.0
2018-Jun-14 02:00N 59°06' E 010°14'0 0.0
2018-Jun-14 01:28N 59°06' E 010°14'0 0.0
2018-Jun-14 00:58N 59°06' E 010°14'0 0.0
2018-Jun-14 00:28N 59°06' E 010°14'0 0.0
2018-Jun-13 23:59N 59°06' E 010°14'0 0.0
2018-Jun-13 23:29N 59°06' E 010°14'0 0.0
2018-Jun-13 22:59N 59°06' E 010°14'0 0.0
2018-Jun-13 22:30N 59°06' E 010°14'0 0.0
2018-Jun-13 22:00N 59°06' E 010°14'0 0.0
2018-Jun-13 21:30N 59°06' E 010°14'0 0.0
2018-Jun-13 20:58N 59°06' E 010°14'0 0.0
2018-Jun-13 20:28N 59°06' E 010°14'0 0.0
2018-Jun-13 19:58N 59°06' E 010°14'1 1.8
2018-Jun-13 19:30N 59°07' E 010°14'1 1.2
2018-Jun-13 19:01N 59°08' E 010°14'4 7.6
2018-Jun-13 18:31N 59°04' E 010°15'714.8
2018-Jun-13 18:01N 59°01' E 010°28'816.8
2018-Jun-13 17:31N 59°01' E 010°44'816.1
2018-Jun-13 17:01N 58°60' E 010°60'713.1
2018-Jun-13 16:30N 58°56' E 011°10'0 0.0
2018-Jun-13 16:01N 58°56' E 011°10'3 6.6
2018-Jun-13 15:31N 58°57' E 011°04'816.1
2018-Jun-13 15:01N 59°01' E 010°51'816.2
2018-Jun-13 14:31N 59°01' E 010°35'815.7
2018-Jun-13 14:00N 59°01' E 010°20'612.8
2018-Jun-13 13:31N 59°07' E 010°14'1 1.7
2018-Jun-13 13:00N 59°08' E 010°14'0 0.0
2018-Jun-13 12:30N 59°08' E 010°14'5 9.2
2018-Jun-13 12:01N 59°03' E 010°15'714.4
2018-Jun-13 11:31N 59°01' E 010°28'815.7
2018-Jun-13 11:01N 59°02' E 010°43'714.9
2018-Jun-13 10:31N 59°00' E 010°58'714.6
2018-Jun-13 10:01N 58°56' E 011°09'1 1.1
2018-Jun-13 09:31N 58°56' E 011°10'0 0.0
2018-Jun-13 09:01N 58°56' E 011°10'510.6
2018-Jun-13 08:31N 58°59' E 011°01'816.1
2018-Jun-13 08:00N 59°02' E 010°47'816.8
2018-Jun-13 07:31N 59°00' E 010°31'816.5
2018-Jun-13 07:00N 59°02' E 010°15'510.5
2018-Jun-13 06:30N 59°08' E 010°14'0 0.0
2018-Jun-13 06:01N 59°08' E 010°14'1 2.4
2018-Jun-13 05:31N 59°06' E 010°14'0 0.4
2018-Jun-13 05:01N 59°06' E 010°14'0 0.0
2018-Jun-13 04:29N 59°06' E 010°14'0 0.0
2018-Jun-13 03:59N 59°06' E 010°14'0 0.0
2018-Jun-13 03:30N 59°06' E 010°14'0 0.0
2018-Jun-13 03:00N 59°06' E 010°14'0 0.0
2018-Jun-13 02:30N 59°06' E 010°14'0 0.0
2018-Jun-13 01:58N 59°06' E 010°14'0 0.0
2018-Jun-13 01:28N 59°06' E 010°14'0 0.0
2018-Jun-13 00:58N 59°06' E 010°14'0 0.0
2018-Jun-13 00:29N 59°06' E 010°14'0 0.0
2018-Jun-12 23:59N 59°06' E 010°14'0 0.0
2018-Jun-12 23:29N 59°06' E 010°14'0 0.0
2018-Jun-12 23:00N 59°06' E 010°14'0 0.0
2018-Jun-12 22:30N 59°06' E 010°14'0 0.0
2018-Jun-12 22:00N 59°06' E 010°14'0 0.0
2018-Jun-12 21:28N 59°06' E 010°14'0 0.0
2018-Jun-12 20:58N 59°06' E 010°14'0 0.0
2018-Jun-12 20:28N 59°06' E 010°14'0 0.0
2018-Jun-12 19:59N 59°06' E 010°14'1 1.9
2018-Jun-12 19:30N 59°07' E 010°14'1 1.1
2018-Jun-12 19:01N 59°08' E 010°14'3 6.1
2018-Jun-12 18:30N 59°05' E 010°15'713.8
2018-Jun-12 18:00N 59°01' E 010°26'816.7
2018-Jun-12 17:31N 59°01' E 010°42'816.2
2018-Jun-12 17:00N 59°00' E 010°58'714.3
2018-Jun-12 16:30N 58°56' E 011°09'1 1.1
2018-Jun-12 16:00N 58°56' E 011°10'2 4.8
2018-Jun-12 15:30N 58°56' E 011°05'816.1
2018-Jun-12 15:00N 59°01' E 010°53'816.2
2018-Jun-12 14:30N 59°01' E 010°37'815.8
2018-Jun-12 14:00N 59°01' E 010°22'713.1
2018-Jun-12 13:30N 59°06' E 010°14'1 2.8
2018-Jun-12 13:00N 59°08' E 010°14'0 0.0
2018-Jun-12 12:30N 59°08' E 010°14'5 9.3
2018-Jun-12 12:01N 59°03' E 010°15'714.2
2018-Jun-12 11:31N 59°01' E 010°28'815.7
2018-Jun-12 11:00N 59°02' E 010°43'714.9
2018-Jun-12 10:31N 59°00' E 010°57'714.7
2018-Jun-12 10:01N 58°56' E 011°09'0 1.0
2018-Jun-12 09:30N 58°56' E 011°10'0 0.0
2018-Jun-12 09:01N 58°56' E 011°10'5 9.9
2018-Jun-12 08:30N 58°58' E 011°02'815.3
2018-Jun-12 08:01N 59°02' E 010°48'816.5
2018-Jun-12 07:31N 59°00' E 010°32'  
Track history (hours):
 
Tides and Currents Weather Stations Pressure Air Temp Water Temp Dewpoint Dewpoint Depression Visibility Wind Speed Wind Dir Waves Ship Positions

DucheSS Of Scandinavia

Operator: DFDS A/S

Last reported at 2018-Jun-22 07:30 UTC. Time now 2018-Jun-22 07:41 UTC.
Position N 59°01' E 010°27'.

Length 134 m; draft 5.4 m.

Type: Passenger vessel. MMSI: 219002929.

Date/timePositionNaut miles runAvg speedWind from/ knotsBaromVisibWave heightAir tempDewpointWater temp
2018-Jun-22 07:30N 59°01' E 010°27'713.6
2018-Jun-22 07:00N 59°04' E 010°15'4 8.1
2018-Jun-22 06:30N 59°08' E 010°14'0 0.0
2018-Jun-22 06:00N 59°08' E 010°14'0 0.8
2018-Jun-22 05:30N 59°07' E 010°14'1 1.9
2018-Jun-22 04:58N 59°06' E 010°14'0 0.0
2018-Jun-22 04:29N 59°06' E 010°14'0 0.0
2018-Jun-22 03:59N 59°06' E 010°14'0 0.0
2018-Jun-22 03:29N 59°06' E 010°14'0 0.0
2018-Jun-22 03:00N 59°06' E 010°14'0 0.0
2018-Jun-22 02:30N 59°06' E 010°14'0 0.0
2018-Jun-22 01:57N 59°06' E 010°14'0 0.0
2018-Jun-22 01:28N 59°06' E 010°14'0 0.0
2018-Jun-22 00:58N 59°06' E 010°14'0 0.0
2018-Jun-22 00:28N 59°06' E 010°14'0 0.0
2018-Jun-21 23:59N 59°06' E 010°14'0 0.0
2018-Jun-21 23:29N 59°06' E 010°14'0 0.0
2018-Jun-21 22:59N 59°06' E 010°14'0 0.0
2018-Jun-21 22:30N 59°06' E 010°14'0 0.0
2018-Jun-21 22:00N 59°06' E 010°14'0 0.0
2018-Jun-21 21:30N 59°06' E 010°14'0 0.0
2018-Jun-21 20:58N 59°06' E 010°14'0 0.0
2018-Jun-21 20:28N 59°06' E 010°14'0 0.0
2018-Jun-21 19:58N 59°06' E 010°14'0 0.0
2018-Jun-21 19:30N 59°06' E 010°14'1 2.7
2018-Jun-21 18:58N 59°08' E 010°14'4 8.3
2018-Jun-21 18:30N 59°04' E 010°15'714.7
2018-Jun-21 18:00N 59°01' E 010°28'917.4
2018-Jun-21 17:31N 59°01' E 010°45'816.4
2018-Jun-21 17:01N 58°59' E 011°00'612.3
2018-Jun-21 16:30N 58°56' E 011°10'0 0.0
2018-Jun-21 16:01N 58°56' E 011°10'612.0
2018-Jun-21 15:30N 58°59' E 011°00'815.7
2018-Jun-21 15:00N 59°02' E 010°46'815.3
2018-Jun-21 14:31N 59°00' E 010°31'713.9
2018-Jun-21 14:00N 59°01' E 010°18'612.6
2018-Jun-21 13:30N 59°07' E 010°14'0 0.6
2018-Jun-21 13:00N 59°08' E 010°14'0 0.0
2018-Jun-21 12:30N 59°08' E 010°14'5 9.5
2018-Jun-21 12:00N 59°03' E 010°15'714.3
2018-Jun-21 11:30N 59°01' E 010°29'815.8
2018-Jun-21 11:00N 59°02' E 010°44'815.2
2018-Jun-21 10:30N 58°60' E 010°58'714.0
2018-Jun-21 10:01N 58°56' E 011°09'0 0.7
2018-Jun-21 09:31N 58°56' E 011°10'0 0.2
2018-Jun-21 09:00N 58°56' E 011°10'713.7
2018-Jun-21 08:30N 58°60' E 010°59'816.1
2018-Jun-21 08:00N 59°01' E 010°43'815.7
2018-Jun-21 07:30N 59°01' E 010°28'714.4
2018-Jun-21 07:01N 59°03' E 010°15'5 9.1
2018-Jun-21 06:30N 59°08' E 010°14'0 0.0
2018-Jun-21 06:00N 59°08' E 010°14'1 1.6
2018-Jun-21 05:30N 59°07' E 010°14'1 1.2
2018-Jun-21 05:00N 59°06' E 010°14'0 0.0
2018-Jun-21 04:30N 59°06' E 010°14'0 0.0
2018-Jun-21 04:01N 59°06' E 010°14'0 0.0
2018-Jun-21 03:28N 59°06' E 010°14'0 0.0
2018-Jun-21 02:58N 59°06' E 010°14'0 0.0
2018-Jun-21 02:29N 59°06' E 010°14'0 0.0
2018-Jun-21 01:59N 59°06' E 010°14'0 0.0
2018-Jun-21 01:26N 59°06' E 010°14'0 0.0
2018-Jun-21 01:00N 59°06' E 010°14'0 0.0
2018-Jun-21 00:30N 59°06' E 010°14'0 0.0
2018-Jun-21 00:00N 59°06' E 010°14'0 0.0
2018-Jun-20 23:31N 59°06' E 010°14'0 0.0
2018-Jun-20 22:58N 59°06' E 010°14'0 0.0
2018-Jun-20 22:28N 59°06' E 010°14'0 0.0
2018-Jun-20 21:59N 59°06' E 010°14'0 0.0
2018-Jun-20 21:29N 59°06' E 010°14'0 0.0
2018-Jun-20 20:59N 59°06' E 010°14'0 0.0
2018-Jun-20 20:30N 59°06' E 010°14'0 0.0
2018-Jun-20 20:00N 59°06' E 010°14'0 0.0
2018-Jun-20 19:30N 59°06' E 010°14'1 2.9
2018-Jun-20 19:00N 59°08' E 010°14'3 6.7
2018-Jun-20 18:31N 59°04' E 010°15'714.0
2018-Jun-20 18:00N 59°01' E 010°27'815.9
2018-Jun-20 17:31N 59°01' E 010°42'815.8
2018-Jun-20 17:01N 59°00' E 010°57'815.1
2018-Jun-20 16:31N 58°56' E 011°09'1 1.2
2018-Jun-20 16:00N 58°56' E 011°10'4 8.1
2018-Jun-20 15:31N 58°58' E 011°03'816.1
2018-Jun-20 15:00N 59°01' E 010°49'816.2
2018-Jun-20 14:31N 59°01' E 010°33'815.0
2018-Jun-20 14:01N 59°01' E 010°19'612.6
2018-Jun-20 13:31N 59°07' E 010°14'1 1.5
2018-Jun-20 13:01N 59°08' E 010°14'0 0.0
2018-Jun-20 12:31N 59°08' E 010°14'5 9.0
2018-Jun-20 12:01N 59°03' E 010°15'713.4
2018-Jun-20 11:31N 59°00' E 010°27'815.3
2018-Jun-20 11:01N 59°01' E 010°42'815.2
2018-Jun-20 10:31N 59°00' E 010°57'815.1
2018-Jun-20 10:00N 58°56' E 011°08'1 2.0
2018-Jun-20 09:30N 58°56' E 011°10'0 0.1
2018-Jun-20 09:00N 58°56' E 011°10'713.2
2018-Jun-20 08:30N 58°59' E 010°59'815.5
2018-Jun-20 08:00N 59°02' E 010°45'815.8
2018-Jun-20 07:30N 59°01' E 010°29'815.1
2018-Jun-20 07:00N 59°03' E 010°15'5 9.8
2018-Jun-20 06:30N 59°08' E 010°14'0 0.1
2018-Jun-20 06:01N 59°08' E 010°14'0 0.3
2018-Jun-20 05:30N 59°07' E 010°14'1 2.4
2018-Jun-20 04:58N 59°06' E 010°14'0 0.0
2018-Jun-20 04:28N 59°06' E 010°14'0 0.0
2018-Jun-20 03:59N 59°06' E 010°14'0 0.0
2018-Jun-20 03:29N 59°06' E 010°14'0 0.0
2018-Jun-20 02:59N 59°06' E 010°14'0 0.0
2018-Jun-20 02:30N 59°06' E 010°14'0 0.0
2018-Jun-20 02:00N 59°06' E 010°14'0 0.0
2018-Jun-20 01:30N 59°06' E 010°14'0 0.0
2018-Jun-20 00:58N 59°06' E 010°14'0 0.0
2018-Jun-20 00:28N 59°06' E 010°14'0 0.0
2018-Jun-19 23:58N 59°06' E 010°14'0 0.0
2018-Jun-19 23:26N 59°06' E 010°14'0 0.0
2018-Jun-19 22:59N 59°06' E 010°14'0 0.0
2018-Jun-19 22:29N 59°06' E 010°14'0 0.0
2018-Jun-19 22:00N 59°06' E 010°14'0 0.0
2018-Jun-19 21:30N 59°06' E 010°14'0 0.0
2018-Jun-19 21:00N 59°06' E 010°14'0 0.0
2018-Jun-19 20:28N 59°06' E 010°14'0 0.0
2018-Jun-19 19:58N 59°06' E 010°14'1 2.8
2018-Jun-19 19:28N 59°08' E 010°14'0 0.7
2018-Jun-19 19:00N 59°07' E 010°14'612.8
2018-Jun-19 18:30N 59°01' E 010°17'714.8
2018-Jun-19 18:00N 59°01' E 010°32'714.0
2018-Jun-19 17:31N 59°02' E 010°45'714.6
2018-Jun-19 17:00N 58°60' E 010°59'713.7
2018-Jun-19 16:30N 58°56' E 011°10'0 0.3
2018-Jun-19 16:01N 58°56' E 011°10'4 7.8
2018-Jun-19 15:31N 58°57' E 011°03'814.9
2018-Jun-19 15:00N 59°01' E 010°51'815.5
2018-Jun-19 14:30N 59°01' E 010°36'815.2
2018-Jun-19 14:00N 59°01' E 010°21'612.8
2018-Jun-19 13:30N 59°06' E 010°14'1 2.7
2018-Jun-19 13:01N 59°08' E 010°14'0 0.1
2018-Jun-19 12:30N 59°08' E 010°14'612.2
2018-Jun-19 12:01N 59°02' E 010°17'713.8
2018-Jun-19 11:30N 59°00' E 010°30'714.5
2018-Jun-19 11:00N 59°02' E 010°44'815.6
2018-Jun-19 10:30N 58°60' E 010°58'714.2
2018-Jun-19 10:00N 58°56' E 011°10'0 0.3
2018-Jun-19 09:30N 58°56' E 011°10'0 0.3
2018-Jun-19 09:01N 58°56' E 011°10'713.3
2018-Jun-19 08:30N 58°59' E 010°59'815.2
2018-Jun-19 08:00N 59°02' E 010°45'815.3
2018-Jun-19 07:30N 59°00' E 010°30'714.8
2018-Jun-19 07:01N 59°02' E 010°16'611.2
2018-Jun-19 06:30N 59°07' E 010°14'0 0.2
2018-Jun-19 06:00N 59°08' E 010°14'0 0.7
2018-Jun-19 05:30N 59°07' E 010°14'1 2.1
2018-Jun-19 04:59N 59°06' E 010°14'0 0.0
2018-Jun-19 04:29N 59°06' E 010°14'0 0.0
2018-Jun-19 04:00N 59°06' E 010°14'0 0.0
2018-Jun-19 03:30N 59°06' E 010°14'0 0.0
2018-Jun-19 03:00N 59°06' E 010°14'0 0.0
2018-Jun-19 02:28N 59°06' E 010°14'0 0.0
2018-Jun-19 01:58N 59°06' E 010°14'0 0.0
2018-Jun-19 01:28N 59°06' E 010°14'0 0.0
2018-Jun-19 00:59N 59°06' E 010°14'0 0.0
2018-Jun-19 00:29N 59°06' E 010°14'0 0.0
2018-Jun-18 23:59N 59°06' E 010°14'0 0.0
2018-Jun-18 23:30N 59°06' E 010°14'0 0.0
2018-Jun-18 23:00N 59°06' E 010°14'0 0.0
2018-Jun-18 22:30N 59°06' E 010°14'0 0.0
2018-Jun-18 21:58N 59°06' E 010°14'0 0.0
2018-Jun-18 21:28N 59°06' E 010°14'0 0.0
2018-Jun-18 20:58N 59°06' E 010°14'0 0.0
2018-Jun-18 20:30N 59°06' E 010°14'0 0.0
2018-Jun-18 20:01N 59°06' E 010°14'0 0.0
2018-Jun-18 19:31N 59°06' E 010°14'1 2.8
2018-Jun-18 19:00N 59°08' E 010°14'4 8.5
2018-Jun-18 18:30N 59°04' E 010°15'713.4
2018-Jun-18 18:00N 59°01' E 010°27'715.0
2018-Jun-18 17:30N 59°01' E 010°41'815.5
2018-Jun-18 17:00N 59°00' E 010°56'815.8
2018-Jun-18 16:30N 58°56' E 011°09'1 1.4
2018-Jun-18 15:58N 58°56' E 011°10'4 9.2
2018-Jun-18 15:31N 58°58' E 011°03'815.2
2018-Jun-18 15:01N 59°01' E 010°50'815.7
2018-Jun-18 14:31N 59°01' E 010°34'815.8
2018-Jun-18 14:01N 59°01' E 010°19'612.8
2018-Jun-18 13:30N 59°07' E 010°14'1 1.1
2018-Jun-18 12:59N 59°08' E 010°14'0 0.0
2018-Jun-18 12:31N 59°08' E 010°14'5 9.3
2018-Jun-18 12:01N 59°03' E 010°15'713.4
2018-Jun-18 11:31N 59°00' E 010°27'714.8
2018-Jun-18 11:01N 59°01' E 010°41'815.4
2018-Jun-18 10:31N 59°00' E 010°56'815.6
2018-Jun-18 10:01N 58°56' E 011°09'1 1.7
2018-Jun-18 09:31N 58°56' E 011°10'0 0.1
2018-Jun-18 09:00N 58°56' E 011°10'713.3
2018-Jun-18 08:31N 58°59' E 010°59'815.0
2018-Jun-18 08:00N 59°02' E 010°45'815.2
2018-Jun-18 07:30N 58°60' E 010°31'714.3
2018-Jun-18 07:01N 59°01' E 010°17'612.1
2018-Jun-18 06:30N 59°07' E 010°14'0 0.4
2018-Jun-18 05:58N 59°08' E 010°14'0 0.6
2018-Jun-18 05:30N 59°07' E 010°14'1 2.2
2018-Jun-18 04:58N 59°06' E 010°14'0 0.0
2018-Jun-18 04:29N 59°06' E 010°14'0 0.0
2018-Jun-18 03:59N 59°06' E 010°14'0 0.0
2018-Jun-18 03:29N 59°06' E 010°14'0 0.0
2018-Jun-18 03:00N 59°06' E 010°14'0 0.0
2018-Jun-18 02:30N 59°06' E 010°14'0 0.0
2018-Jun-18 02:00N 59°06' E 010°14'0 0.0
2018-Jun-18 01:28N 59°06' E 010°14'0 0.0
2018-Jun-18 00:55N 59°06' E 010°14'0 0.0
2018-Jun-18 00:28N 59°06' E 010°14'0 0.0
2018-Jun-17 23:59N 59°06' E 010°14'0 0.0
2018-Jun-17 23:26N 59°06' E 010°14'0 0.0
2018-Jun-17 22:59N 59°06' E 010°14'0 0.0
2018-Jun-17 22:30N 59°06' E 010°14'0 0.0
2018-Jun-17 22:00N 59°06' E 010°14'0 0.0
2018-Jun-17 21:30N 59°06' E 010°14'0 0.0
2018-Jun-17 20:58N 59°06' E 010°14'0 0.0
2018-Jun-17 20:28N 59°06' E 010°14'0 0.0
2018-Jun-17 19:58N 59°06' E 010°14'0 0.4
2018-Jun-17 19:31N 59°06' E 010°14'1 2.4
2018-Jun-17 19:01N 59°08' E 010°14'3 6.7
2018-Jun-17 18:31N 59°04' E 010°15'714.3
2018-Jun-17 18:00N 59°01' E 010°27'816.8
2018-Jun-17 17:31N 59°02' E 010°43'816.4
2018-Jun-17 17:01N 58°60' E 010°59'713.8
2018-Jun-17 16:31N 58°56' E 011°10'0 0.4
2018-Jun-17 16:01N 58°56' E 011°10'4 8.4
2018-Jun-17 15:30N 58°58' E 011°03'816.8
2018-Jun-17 15:00N 59°02' E 010°48'816.6
2018-Jun-17 14:30N 59°01' E 010°32'815.8
2018-Jun-17 14:01N 59°01' E 010°17'612.1
2018-Jun-17 13:30N 59°07' E 010°14'0 0.5
2018-Jun-17 13:00N 59°08' E 010°14'0 0.0
2018-Jun-17 12:30N 59°08' E 010°14'5 9.5
2018-Jun-17 12:01N 59°03' E 010°15'714.1
2018-Jun-17 11:30N 59°01' E 010°28'815.8
2018-Jun-17 11:00N 59°02' E 010°44'815.4
2018-Jun-17 10:30N 58°60' E 010°58'714.0
2018-Jun-17 10:01N 58°56' E 011°09'0 0.9
2018-Jun-17 09:31N 58°56' E 011°10'0 0.4
2018-Jun-17 09:01N 58°56' E 011°10'713.5
2018-Jun-17 08:30N 58°60' E 010°59'815.4
2018-Jun-17 08:00N 59°01' E 010°44'815.3
2018-Jun-17 07:31N 59°00' E 010°30'714.6
2018-Jun-17 07:01N 59°02' E 010°16'611.5
2018-Jun-17 06:30N 59°08' E 010°14'0 0.1
2018-Jun-17 06:01N 59°08' E 010°14'0 0.7
2018-Jun-17 05:30N 59°07' E 010°14'1 2.1
2018-Jun-17 04:59N 59°06' E 010°14'0 0.0
2018-Jun-17 04:30N 59°06' E 010°14'0 0.0
2018-Jun-17 04:00N 59°06' E 010°14'0 0.0
2018-Jun-17 03:30N 59°06' E 010°14'0 0.0
2018-Jun-17 02:58N 59°06' E 010°14'0 0.0
2018-Jun-17 02:28N 59°06' E 010°14'0 0.0
2018-Jun-17 01:58N 59°06' E 010°14'0 0.0
2018-Jun-17 01:29N 59°06' E 010°14'0 0.0
2018-Jun-17 00:59N 59°06' E 010°14'0 0.0
2018-Jun-17 00:29N 59°06' E 010°14'0 0.0
2018-Jun-17 00:00N 59°06' E 010°14'0 0.0
2018-Jun-16 23:30N 59°06' E 010°14'0 0.0
2018-Jun-16 23:00N 59°06' E 010°14'0 0.0
2018-Jun-16 22:28N 59°06' E 010°14'0 0.0
2018-Jun-16 21:58N 59°06' E 010°14'0 0.0
2018-Jun-16 21:28N 59°06' E 010°14'0 0.0
2018-Jun-16 20:59N 59°06' E 010°14'0 0.0
2018-Jun-16 20:29N 59°06' E 010°14'0 0.0
2018-Jun-16 19:59N 59°06' E 010°14'0 0.3
2018-Jun-16 19:30N 59°06' E 010°14'1 2.6
2018-Jun-16 19:00N 59°08' E 010°14'3 6.8
2018-Jun-16 18:30N 59°04' E 010°15'714.0
2018-Jun-16 18:01N 59°01' E 010°27'816.6
2018-Jun-16 17:31N 59°01' E 010°43'816.3
2018-Jun-16 17:01N 58°60' E 010°58'714.1
2018-Jun-16 16:31N 58°56' E 011°10'0 0.6
2018-Jun-16 16:01N 58°56' E 011°10'4 7.4
2018-Jun-16 15:31N 58°57' E 011°03'815.5
2018-Jun-16 15:01N 59°01' E 010°50'816.3
2018-Jun-16 14:31N 59°01' E 010°35'816.0
2018-Jun-16 14:01N 59°01' E 010°19'612.7
2018-Jun-16 13:30N 59°07' E 010°14'1 1.2
2018-Jun-16 13:00N 59°08' E 010°14'0 0.0
2018-Jun-16 12:30N 59°08' E 010°14'5 9.2
2018-Jun-16 12:00N 59°03' E 010°15'713.2
2018-Jun-16 11:30N 59°01' E 010°27'714.7
2018-Jun-16 11:01N 59°01' E 010°42'815.0
2018-Jun-16 10:31N 59°00' E 010°56'815.7
2018-Jun-16 10:00N 58°56' E 011°09'1 1.7
2018-Jun-16 09:31N 58°56' E 011°10'0 0.1
2018-Jun-16 09:00N 58°56' E 011°10'713.1
2018-Jun-16 08:31N 58°59' E 010°59'816.3
2018-Jun-16 08:01N 59°02' E 010°44'816.3
2018-Jun-16 07:31N 59°01' E 010°28'714.7
2018-Jun-16 07:00N 59°03' E 010°15'4 8.5
2018-Jun-16 06:31N 59°08' E 010°14'0 0.0
2018-Jun-16 06:01N 59°08' E 010°14'1 2.7
2018-Jun-16 05:30N 59°06' E 010°14'0 0.2
2018-Jun-16 05:00N 59°06' E 010°14'0 0.0
2018-Jun-16 04:30N 59°06' E 010°14'0 0.0
2018-Jun-16 04:00N 59°06' E 010°14'0 0.0
2018-Jun-16 03:28N 59°06' E 010°14'0 0.0
2018-Jun-16 02:58N 59°06' E 010°14'0 0.0
2018-Jun-16 02:28N 59°06' E 010°14'0 0.0
2018-Jun-16 01:59N 59°06' E 010°14'0 0.0
2018-Jun-16 01:29N 59°06' E 010°14'0 0.0
2018-Jun-16 00:59N 59°06' E 010°14'0 0.0
2018-Jun-16 00:30N 59°06' E 010°14'0 0.0
2018-Jun-16 00:00N 59°06' E 010°14'0 0.0
2018-Jun-15 23:30N 59°06' E 010°14'0 0.0
2018-Jun-15 22:58N 59°06' E 010°14'0 0.0
2018-Jun-15 22:28N 59°06' E 010°14'0 0.0
2018-Jun-15 21:58N 59°06' E 010°14'0 0.0
2018-Jun-15 21:29N 59°06' E 010°14'0 0.0
2018-Jun-15 20:59N 59°06' E 010°14'0 0.0
2018-Jun-15 20:29N 59°06' E 010°14'0 0.0
2018-Jun-15 20:00N 59°06' E 010°14'0 0.8
2018-Jun-15 19:30N 59°07' E 010°14'1 2.1
2018-Jun-15 19:01N 59°08' E 010°14'4 7.1
2018-Jun-15 18:30N 59°04' E 010°15'713.8
2018-Jun-15 18:01N 59°01' E 010°27'714.8
2018-Jun-15 17:31N 59°01' E 010°41'815.4
2018-Jun-15 17:01N 59°00' E 010°56'816.0
2018-Jun-15 16:31N 58°56' E 011°08'1 1.8
2018-Jun-15 16:00N 58°56' E 011°10'4 8.8
2018-Jun-15 15:30N 58°58' E 011°02'815.7
2018-Jun-15 15:01N 59°01' E 010°49'816.4
2018-Jun-15 14:30N 59°01' E 010°33'815.5
2018-Jun-15 14:01N 59°01' E 010°18'612.2
2018-Jun-15 13:31N 59°07' E 010°14'1 1.1
2018-Jun-15 13:01N 59°08' E 010°14'0 0.0
2018-Jun-15 12:31N 59°08' E 010°14'4 8.2
2018-Jun-15 12:00N 59°04' E 010°15'612.8
2018-Jun-15 11:31N 59°01' E 010°27'714.8
2018-Jun-15 11:01N 59°01' E 010°41'714.8
2018-Jun-15 10:31N 59°01' E 010°55'816.1
2018-Jun-15 10:01N 58°56' E 011°08'1 2.4
2018-Jun-15 09:30N 58°56' E 011°10'0 0.0
2018-Jun-15 09:01N 58°56' E 011°10'611.7
2018-Jun-15 08:30N 58°59' E 011°00'815.2
2018-Jun-15 08:01N 59°02' E 010°47'815.8
2018-Jun-15 07:30N 59°01' E 010°31'815.7
2018-Jun-15 07:01N 59°02' E 010°16'611.9
2018-Jun-15 06:30N 59°07' E 010°14'0 0.4
2018-Jun-15 06:00N 59°08' E 010°14'1 1.9
2018-Jun-15 05:30N 59°07' E 010°14'0 1.0
2018-Jun-15 05:00N 59°06' E 010°14'0 0.0
2018-Jun-15 04:28N 59°06' E 010°14'0 0.0
2018-Jun-15 03:58N 59°06' E 010°14'0 0.0
2018-Jun-15 03:28N 59°06' E 010°14'0 0.0
2018-Jun-15 02:59N 59°06' E 010°14'0 0.0
2018-Jun-15 02:29N 59°06' E 010°14'0 0.0
2018-Jun-15 01:59N 59°06' E 010°14'0 0.0
2018-Jun-15 01:30N 59°06' E 010°14'0 0.0
2018-Jun-15 01:00N 59°06' E 010°14'0 0.0
2018-Jun-15 00:30N 59°06' E 010°14'0 0.0
2018-Jun-14 23:58N 59°06' E 010°14'0 0.0
2018-Jun-14 23:28N 59°06' E 010°14'0 0.0
2018-Jun-14 22:59N 59°06' E 010°14'0 0.0
2018-Jun-14 22:29N 59°06' E 010°14'0 0.0
2018-Jun-14 21:59N 59°06' E 010°14'0 0.0
2018-Jun-14 21:27N 59°06' E 010°14'0 0.0
2018-Jun-14 21:00N 59°06' E 010°14'0 0.0
2018-Jun-14 20:30N 59°06' E 010°14'0 0.0
2018-Jun-14 20:01N 59°06' E 010°14'1 2.9
2018-Jun-14 19:31N 59°08' E 010°14'3 6.6
2018-Jun-14 19:01N 59°04' E 010°15'612.4
2018-Jun-14 18:30N 59°00' E 010°24'510.9
2018-Jun-14 18:00N 59°01' E 010°35'510.3
2018-Jun-14 17:31N 59°02' E 010°45'714.2
2018-Jun-14 17:01N 59°00' E 010°58'714.6
2018-Jun-14 16:31N 58°56' E 011°10'0 0.4
2018-Jun-14 16:00N 58°56' E 011°10'511.0
2018-Jun-14 15:30N 58°59' E 011°01'815.6
2018-Jun-14 15:00N 59°02' E 010°47'816.6
2018-Jun-14 14:30N 59°01' E 010°31'816.3
2018-Jun-14 14:01N 59°02' E 010°16'510.9
2018-Jun-14 13:30N 59°08' E 010°14'0 0.1
2018-Jun-14 13:01N 59°08' E 010°14'0 0.0
2018-Jun-14 12:31N 59°08' E 010°14'510.2
2018-Jun-14 12:01N 59°03' E 010°15'815.1
2018-Jun-14 11:31N 59°01' E 010°30'815.6
2018-Jun-14 11:00N 59°02' E 010°45'816.1
2018-Jun-14 10:31N 58°59' E 010°60'612.9
2018-Jun-14 10:01N 58°56' E 011°10'0 0.0
2018-Jun-14 09:31N 58°56' E 011°10'0 0.0
2018-Jun-14 09:01N 58°56' E 011°10'510.9
2018-Jun-14 08:31N 58°59' E 011°01'815.0
2018-Jun-14 08:01N 59°02' E 010°48'815.9
2018-Jun-14 07:30N 59°01' E 010°32'816.7
2018-Jun-14 07:01N 59°02' E 010°16'611.6
2018-Jun-14 06:30N 59°07' E 010°14'0 0.3
2018-Jun-14 06:00N 59°08' E 010°14'0 0.6
2018-Jun-14 05:31N 59°07' E 010°14'1 2.2
2018-Jun-14 05:00N 59°06' E 010°14'0 0.0
2018-Jun-14 04:29N 59°06' E 010°14'0 0.0
2018-Jun-14 03:59N 59°06' E 010°14'0 0.0
2018-Jun-14 03:29N 59°06' E 010°14'0 0.0
2018-Jun-14 03:00N 59°06' E 010°14'0 0.0
2018-Jun-14 02:30N 59°06' E 010°14'0 0.0
2018-Jun-14 02:00N 59°06' E 010°14'0 0.0
2018-Jun-14 01:28N 59°06' E 010°14'0 0.0
2018-Jun-14 00:58N 59°06' E 010°14'0 0.0
2018-Jun-14 00:28N 59°06' E 010°14'0 0.0
2018-Jun-13 23:59N 59°06' E 010°14'0 0.0
2018-Jun-13 23:29N 59°06' E 010°14'0 0.0
2018-Jun-13 22:59N 59°06' E 010°14'0 0.0
2018-Jun-13 22:30N 59°06' E 010°14'0 0.0
2018-Jun-13 22:00N 59°06' E 010°14'0 0.0
2018-Jun-13 21:30N 59°06' E 010°14'0 0.0
2018-Jun-13 20:58N 59°06' E 010°14'0 0.0
2018-Jun-13 20:28N 59°06' E 010°14'0 0.0
2018-Jun-13 19:58N 59°06' E 010°14'1 1.8
2018-Jun-13 19:30N 59°07' E 010°14'1 1.2
2018-Jun-13 19:01N 59°08' E 010°14'4 7.6
2018-Jun-13 18:31N 59°04' E 010°15'714.8
2018-Jun-13 18:01N 59°01' E 010°28'816.8
2018-Jun-13 17:31N 59°01' E 010°44'816.1
2018-Jun-13 17:01N 58°60' E 010°60'713.1
2018-Jun-13 16:30N 58°56' E 011°10'0 0.0
2018-Jun-13 16:01N 58°56' E 011°10'3 6.6
2018-Jun-13 15:31N 58°57' E 011°04'816.1
2018-Jun-13 15:01N 59°01' E 010°51'816.2
2018-Jun-13 14:31N 59°01' E 010°35'815.7
2018-Jun-13 14:00N 59°01' E 010°20'612.8
2018-Jun-13 13:31N 59°07' E 010°14'1 1.7
2018-Jun-13 13:00N 59°08' E 010°14'0 0.0
2018-Jun-13 12:30N 59°08' E 010°14'5 9.2
2018-Jun-13 12:01N 59°03' E 010°15'714.4
2018-Jun-13 11:31N 59°01' E 010°28'815.7
2018-Jun-13 11:01N 59°02' E 010°43'714.9
2018-Jun-13 10:31N 59°00' E 010°58'714.6
2018-Jun-13 10:01N 58°56' E 011°09'1 1.1
2018-Jun-13 09:31N 58°56' E 011°10'0 0.0
2018-Jun-13 09:01N 58°56' E 011°10'510.6
2018-Jun-13 08:31N 58°59' E 011°01'816.1
2018-Jun-13 08:00N 59°02' E 010°47'816.8
2018-Jun-13 07:31N 59°00' E 010°31'816.5
2018-Jun-13 07:00N 59°02' E 010°15'510.5
2018-Jun-13 06:30N 59°08' E 010°14'0 0.0
2018-Jun-13 06:01N 59°08' E 010°14'1 2.4
2018-Jun-13 05:31N 59°06' E 010°14'0 0.4
2018-Jun-13 05:01N 59°06' E 010°14'0 0.0
2018-Jun-13 04:29N 59°06' E 010°14'0 0.0
2018-Jun-13 03:59N 59°06' E 010°14'0 0.0
2018-Jun-13 03:30N 59°06' E 010°14'0 0.0
2018-Jun-13 03:00N 59°06' E 010°14'0 0.0
2018-Jun-13 02:30N 59°06' E 010°14'0 0.0
2018-Jun-13 01:58N 59°06' E 010°14'0 0.0
2018-Jun-13 01:28N 59°06' E 010°14'0 0.0
2018-Jun-13 00:58N 59°06' E 010°14'0 0.0
2018-Jun-13 00:29N 59°06' E 010°14'0 0.0
2018-Jun-12 23:59N 59°06' E 010°14'0 0.0
2018-Jun-12 23:29N 59°06' E 010°14'0 0.0
2018-Jun-12 23:00N 59°06' E 010°14'0 0.0
2018-Jun-12 22:30N 59°06' E 010°14'0 0.0
2018-Jun-12 22:00N 59°06' E 010°14'0 0.0
2018-Jun-12 21:28N 59°06' E 010°14'0 0.0
2018-Jun-12 20:58N 59°06' E 010°14'0 0.0
2018-Jun-12 20:28N 59°06' E 010°14'0 0.0
2018-Jun-12 19:59N 59°06' E 010°14'1 1.9
2018-Jun-12 19:30N 59°07' E 010°14'1 1.1
2018-Jun-12 19:01N 59°08' E 010°14'3 6.1
2018-Jun-12 18:30N 59°05' E 010°15'713.8
2018-Jun-12 18:00N 59°01' E 010°26'816.7
2018-Jun-12 17:31N 59°01' E 010°42'816.2
2018-Jun-12 17:00N 59°00' E 010°58'714.3
2018-Jun-12 16:30N 58°56' E 011°09'1 1.1
2018-Jun-12 16:00N 58°56' E 011°10'2 4.8
2018-Jun-12 15:30N 58°56' E 011°05'816.1
2018-Jun-12 15:00N 59°01' E 010°53'816.2
2018-Jun-12 14:30N 59°01' E 010°37'815.8
2018-Jun-12 14:00N 59°01' E 010°22'713.1
2018-Jun-12 13:30N 59°06' E 010°14'1 2.8
2018-Jun-12 13:00N 59°08' E 010°14'0 0.0
2018-Jun-12 12:30N 59°08' E 010°14'5 9.3
2018-Jun-12 12:01N 59°03' E 010°15'714.2
2018-Jun-12 11:31N 59°01' E 010°28'815.7
2018-Jun-12 11:00N 59°02' E 010°43'714.9
2018-Jun-12 10:31N 59°00' E 010°57'714.7
2018-Jun-12 10:01N 58°56' E 011°09'0 1.0
2018-Jun-12 09:30N 58°56' E 011°10'0 0.0
2018-Jun-12 09:01N 58°56' E 011°10'5 9.9
2018-Jun-12 08:30N 58°58' E 011°02'815.3
2018-Jun-12 08:01N 59°02' E 010°48'816.5
2018-Jun-12 07:31N 59°00' E 010°32'  

Dump ship's entire track history